createdAt,value
2023-03-12T00:00:50.272Z,76.78
2023-03-12T00:03:50.318Z,78.10
2023-03-12T00:06:50.262Z,77.79
2023-03-12T00:09:52.251Z,78.44
2023-03-12T00:12:52.311Z,78.84
2023-03-12T00:15:53.311Z,79.28
2023-03-12T00:18:53.306Z,80.06
2023-03-12T00:21:53.249Z,79.43
2023-03-12T00:24:53.312Z,78.96
2023-03-12T00:27:53.298Z,78.13
2023-03-12T00:30:55.334Z,78.32
2023-03-12T00:33:49.280Z,78.03
2023-03-12T00:36:38.239Z,77.47
2023-03-12T00:39:38.260Z,76.50
2023-03-12T00:42:38.271Z,76.82
2023-03-12T00:45:38.293Z,77.59
2023-03-12T00:48:38.262Z,78.59
2023-03-12T00:51:38.272Z,80.16
2023-03-12T00:54:38.279Z,80.38
2023-03-12T00:57:38.268Z,80.82
2023-03-12T01:00:38.265Z,80.79
2023-03-12T01:03:38.409Z,80.52
2023-03-12T01:06:38.257Z,81.36
2023-03-12T01:09:38.298Z,81.36
2023-03-12T01:12:38.259Z,82.32
2023-03-12T01:15:38.244Z,82.99
2023-03-12T01:18:38.298Z,82.21
2023-03-12T01:21:38.284Z,80.28
2023-03-12T01:24:38.269Z,81.04
2023-03-12T01:27:38.252Z,80.77
2023-03-12T01:30:38.268Z,81.72
2023-03-12T01:33:38.284Z,80.95
2023-03-12T01:36:41.299Z,80.26
2023-03-12T01:39:41.251Z,79.73
2023-03-12T01:42:41.298Z,79.73
2023-03-12T01:46:15.384Z,81.26
2023-03-12T01:49:25.262Z,82.03
2023-03-12T01:52:42.276Z,81.62
2023-03-12T01:55:42.293Z,82.15
2023-03-12T01:58:42.276Z,82.35
2023-03-12T02:01:42.260Z,82.46
2023-03-12T02:04:42.231Z,82.65
2023-03-12T02:07:42.298Z,81.55
2023-03-12T02:10:42.287Z,80.42
2023-03-12T02:13:42.276Z,81.26
2023-03-12T02:16:42.282Z,79.71
2023-03-12T02:20:01.262Z,79.92
2023-03-12T02:23:16.270Z,80.43
2023-03-12T02:26:18.233Z,80.18
2023-03-12T02:29:18.290Z,79.87
2023-03-12T02:32:19.335Z,79.81
2023-03-12T02:35:20.293Z,80.24
2023-03-12T02:38:40.263Z,83.32
2023-03-12T02:41:43.282Z,81.79
2023-03-12T02:44:47.238Z,82.28
2023-03-12T02:47:47.242Z,83.29
2023-03-12T02:50:47.277Z,83.78
2023-03-12T02:53:47.272Z,84.18
2023-03-12T02:56:47.239Z,82.97
2023-03-12T02:59:47.240Z,83.93
2023-03-12T03:02:47.248Z,83.48
2023-03-12T03:05:47.273Z,82.54
2023-03-12T03:08:47.281Z,82.77
2023-03-12T03:11:47.245Z,82.72
2023-03-12T03:14:47.285Z,83.45
2023-03-12T03:17:47.231Z,84.15
2023-03-12T03:20:47.288Z,84.72
2023-03-12T03:23:48.262Z,84.78
2023-03-12T03:26:48.287Z,84.44
2023-03-12T03:32:49.316Z,85.52
2023-03-12T03:35:49.302Z,85.19
2023-03-12T03:38:49.259Z,85.87
2023-03-12T03:41:49.275Z,86.21
2023-03-12T03:44:50.266Z,87.03
2023-03-12T03:47:50.277Z,87.81
2023-03-12T03:50:51.228Z,87.56
2023-03-12T03:53:51.261Z,88.47
2023-03-12T03:56:51.229Z,88.68
2023-03-12T03:59:51.243Z,88.89
2023-03-12T04:02:51.237Z,88.76
2023-03-12T04:05:52.301Z,88.80
2023-03-12T04:08:52.379Z,88.52
2023-03-12T04:11:52.299Z,89.27
2023-03-12T04:14:49.259Z,89.15
2023-03-12T04:17:49.268Z,88.96
2023-03-12T04:20:49.231Z,89.18
2023-03-12T04:23:50.222Z,88.12
2023-03-12T04:26:50.240Z,88.71
2023-03-12T04:29:50.271Z,87.81
2023-03-12T04:32:50.261Z,88.17
2023-03-12T04:35:50.270Z,88.18
2023-03-12T04:38:50.236Z,88.18
2023-03-12T04:41:52.231Z,88.80
2023-03-12T04:44:52.256Z,88.58
2023-03-12T04:47:52.276Z,89.25
2023-03-12T04:50:52.245Z,88.42
2023-03-12T04:53:52.265Z,88.53
2023-03-12T04:56:52.216Z,89.06
2023-03-12T04:59:52.268Z,89.52
2023-03-12T05:02:53.307Z,90.35
2023-03-12T05:05:53.283Z,90.30
2023-03-12T05:08:53.254Z,89.60
2023-03-12T05:11:46.239Z,88.65
2023-03-12T05:14:33.260Z,88.25
2023-03-12T05:17:34.286Z,87.59
2023-03-12T05:20:35.248Z,87.27
2023-03-12T05:23:36.288Z,88.05
2023-03-12T05:26:42.307Z,87.69
2023-03-12T05:29:42.283Z,86.87
2023-03-12T05:32:42.324Z,87.53
2023-03-12T05:35:42.250Z,87.60
2023-03-12T05:38:42.231Z,87.02
2023-03-12T05:41:43.259Z,86.30
2023-03-12T05:44:43.267Z,86.84
2023-03-12T05:47:43.237Z,86.70
2023-03-12T05:50:44.240Z,85.31
2023-03-12T05:53:44.230Z,84.39
2023-03-12T05:56:44.280Z,82.63
2023-03-12T05:59:46.265Z,81.18
2023-03-12T06:02:46.278Z,80.03
2023-03-12T06:05:49.221Z,77.05
2023-03-12T06:08:49.220Z,77.69
2023-03-12T06:11:49.260Z,76.39
2023-03-12T06:14:49.211Z,76.87
2023-03-12T06:17:49.240Z,76.14
2023-03-12T06:20:49.197Z,72.49
2023-03-12T06:23:49.260Z,71.67
2023-03-12T06:26:49.220Z,71.74
2023-03-12T06:29:49.236Z,69.69
2023-03-12T06:32:49.243Z,70.78
2023-03-12T06:35:49.293Z,72.60
2023-03-12T06:38:49.237Z,68.40
2023-03-12T06:41:49.244Z,68.71
2023-03-12T06:44:49.210Z,67.42
2023-03-12T06:47:49.222Z,66.30
2023-03-12T06:50:49.221Z,67.05
2023-03-12T06:53:49.198Z,65.58
2023-03-12T06:56:49.223Z,64.32
2023-03-12T06:59:50.619Z,63.79
2023-03-12T07:02:50.237Z,63.30
2023-03-12T07:05:50.247Z,64.48
2023-03-12T07:08:50.263Z,66.09
2023-03-12T07:11:50.240Z,63.70
2023-03-12T07:14:50.238Z,64.77
2023-03-12T07:17:50.213Z,62.21
2023-03-12T07:20:51.245Z,61.13
2023-03-12T07:23:51.253Z,62.49
2023-03-12T07:26:51.259Z,61.49
2023-03-12T07:29:51.262Z,60.73
2023-03-12T07:32:51.217Z,60.64
2023-03-12T07:35:52.332Z,58.87
2023-03-12T07:38:52.199Z,59.29
2023-03-12T07:41:52.307Z,58.81
2023-03-12T07:44:52.788Z,60.06
2023-03-12T07:47:52.329Z,58.64
2023-03-12T07:50:52.300Z,57.82
2023-03-12T07:53:52.270Z,54.85
2023-03-12T07:56:52.464Z,48.61
2023-03-12T07:59:53.305Z,44.54
2023-03-12T08:02:53.410Z,43.58
2023-03-12T08:05:53.265Z,40.47
2023-03-12T08:08:53.260Z,40.64
2023-03-12T08:11:53.393Z,38.74
2023-03-12T08:14:53.285Z,36.91
2023-03-12T08:17:53.218Z,39.06
2023-03-12T08:20:53.257Z,36.19
2023-03-12T08:23:53.215Z,37.29
2023-03-12T08:26:53.259Z,35.67
2023-03-12T08:29:54.251Z,38.39
2023-03-12T08:32:54.323Z,35.52
2023-03-12T08:35:54.298Z,36.01
2023-03-12T08:38:54.245Z,34.90
2023-03-12T08:41:54.208Z,34.99
2023-03-12T08:44:54.328Z,33.71
2023-03-12T08:47:48.225Z,33.28
2023-03-12T08:50:29.371Z,33.41
2023-03-12T08:53:16.234Z,33.70
2023-03-12T08:55:55.309Z,35.20
2023-03-12T08:58:42.255Z,33.63
2023-03-12T09:01:43.845Z,32.23
2023-03-12T09:04:43.492Z,31.40
2023-03-12T09:07:44.257Z,33.37
2023-03-12T09:10:44.215Z,32.73
2023-03-12T09:14:22.262Z,32.00
2023-03-12T09:17:04.257Z,31.98
2023-03-12T09:20:04.276Z,30.71
2023-03-12T09:23:05.653Z,31.88
2023-03-12T09:26:06.218Z,30.64
2023-03-12T09:29:06.222Z,33.08
2023-03-12T09:32:06.233Z,31.47
2023-03-12T09:35:06.233Z,31.32
2023-03-12T09:38:06.251Z,31.83
2023-03-12T09:41:06.257Z,32.23
2023-03-12T09:44:11.239Z,30.76
2023-03-12T09:47:14.221Z,31.49
2023-03-12T09:50:22.240Z,30.43
2023-03-12T09:53:38.220Z,32.53
2023-03-12T09:56:40.232Z,31.36
2023-03-12T09:59:40.392Z,32.08
2023-03-12T10:02:59.263Z,30.57
2023-03-12T10:06:17.326Z,29.43
2023-03-12T10:09:37.217Z,29.78
2023-03-12T10:13:01.275Z,29.01
2023-03-12T10:16:19.332Z,30.65
2023-03-12T10:19:37.229Z,28.68
2023-03-12T10:23:14.302Z,28.24
2023-03-12T10:26:21.257Z,29.76
2023-03-12T10:29:28.251Z,30.78
2023-03-12T10:32:33.266Z,30.41
2023-03-12T10:35:37.252Z,29.97
2023-03-12T10:38:43.247Z,27.50
2023-03-12T10:41:45.222Z,27.34
2023-03-12T10:44:45.278Z,28.17
2023-03-12T10:47:50.212Z,27.61
2023-03-12T10:50:51.253Z,28.77
2023-03-12T10:54:00.252Z,26.81
2023-03-12T10:57:04.239Z,26.73
2023-03-12T11:00:04.220Z,26.82
2023-03-12T11:03:10.238Z,26.91
2023-03-12T11:06:13.270Z,27.61
2023-03-12T11:09:33.269Z,27.54
2023-03-12T11:12:42.275Z,26.25
2023-03-12T11:15:44.287Z,26.44
2023-03-12T11:18:49.274Z,27.94
2023-03-12T11:21:50.284Z,27.04
2023-03-12T11:24:50.237Z,26.55
2023-03-12T11:27:52.250Z,28.63
2023-03-12T11:30:45.261Z,27.27
2023-03-12T11:33:45.212Z,25.87
2023-03-12T11:36:52.286Z,25.88
2023-03-12T11:40:17.295Z,27.36
2023-03-12T11:43:43.333Z,27.56
2023-03-12T11:47:03.267Z,28.28
2023-03-12T11:50:41.302Z,27.88
2023-03-12T11:53:50.267Z,27.58
2023-03-12T11:56:53.264Z,27.74
2023-03-12T11:59:53.222Z,27.21
2023-03-12T12:03:11.274Z,27.02
2023-03-12T12:06:46.940Z,26.90
2023-03-12T12:09:58.254Z,27.60
2023-03-12T12:13:24.310Z,27.39
2023-03-12T12:16:55.296Z,27.69
2023-03-12T12:20:30.322Z,27.90
2023-03-12T12:23:32.288Z,26.93
2023-03-12T12:26:51.271Z,27.89
2023-03-12T12:30:21.296Z,28.96
2023-03-12T12:33:39.306Z,28.98
2023-03-12T12:36:43.219Z,29.66
2023-03-12T12:39:47.112Z,29.14
2023-03-12T12:42:49.296Z,32.57
2023-03-12T12:45:53.300Z,34.27
2023-03-12T12:49:25.294Z,37.11
2023-03-12T12:52:33.294Z,37.95
2023-03-12T12:55:32.290Z,38.35
2023-03-12T12:58:19.330Z,37.70
2023-03-12T13:01:19.344Z,37.72
2023-03-12T13:04:24.305Z,36.74
2023-03-12T13:07:28.110Z,35.54
2023-03-12T13:10:57.590Z,36.88
2023-03-12T13:14:28.302Z,39.31
2023-03-12T13:17:44.298Z,39.37
2023-03-12T13:21:06.303Z,40.52
2023-03-12T13:24:38.259Z,41.84
2023-03-12T13:27:43.326Z,40.76
2023-03-12T13:30:48.407Z,40.71
2023-03-12T13:34:01.313Z,39.97
2023-03-12T13:37:04.249Z,41.84
2023-03-12T13:40:04.266Z,41.58
2023-03-12T13:43:15.309Z,41.45
2023-03-12T13:46:19.441Z,42.63
2023-03-12T13:49:24.280Z,43.17
2023-03-12T13:52:44.308Z,42.77
2023-03-12T13:55:47.291Z,41.96
2023-03-12T13:58:55.304Z,41.81
2023-03-12T14:01:57.310Z,42.58
2023-03-12T14:04:58.193Z,42.12
2023-03-12T14:08:17.268Z,41.69
2023-03-12T14:11:37.314Z,41.18
2023-03-12T14:14:56.269Z,40.88
2023-03-12T14:17:57.277Z,40.76
2023-03-12T14:21:06.307Z,41.21
2023-03-12T14:24:11.311Z,41.27
2023-03-12T14:27:11.307Z,42.00
2023-03-12T14:30:15.309Z,42.68
2023-03-12T14:33:16.276Z,42.47
2023-03-12T14:37:12.317Z,42.35
2023-03-12T14:40:15.302Z,42.44
2023-03-12T14:43:15.309Z,41.92
2023-03-12T14:46:20.291Z,42.29
2023-03-12T14:49:20.306Z,43.42
2023-03-12T14:52:20.296Z,43.73
2023-03-12T14:55:45.284Z,44.36
2023-03-12T14:58:47.247Z,44.76
2023-03-12T15:01:48.316Z,45.46
2023-03-12T15:04:48.333Z,46.03
2023-03-12T15:07:50.248Z,46.35
2023-03-12T15:10:50.314Z,46.34
2023-03-12T15:13:51.309Z,46.82
2023-03-12T15:16:51.273Z,47.57
2023-03-12T15:19:52.275Z,46.82
2023-03-12T15:22:52.312Z,46.52
2023-03-12T15:25:52.300Z,46.67
2023-03-12T15:28:53.308Z,46.89
2023-03-12T15:31:57.336Z,46.86
2023-03-12T15:34:59.161Z,46.59
2023-03-12T15:38:04.261Z,47.26
2023-03-12T15:41:05.254Z,47.30
2023-03-12T15:44:09.295Z,47.85
2023-03-12T15:47:26.298Z,48.60
2023-03-12T15:50:32.255Z,48.46
2023-03-12T15:53:35.273Z,48.88
2023-03-12T15:56:36.283Z,48.83
2023-03-12T15:59:40.299Z,49.12
2023-03-12T16:02:51.304Z,48.91
2023-03-12T16:05:53.256Z,49.23
2023-03-12T16:08:58.277Z,49.16
2023-03-12T16:11:58.294Z,49.34
2023-03-12T16:14:58.323Z,49.69
2023-03-12T16:17:58.284Z,49.88
2023-03-12T16:20:58.216Z,49.91
2023-03-12T16:23:58.292Z,50.00
2023-03-12T16:27:07.305Z,50.04
2023-03-12T16:30:07.266Z,50.96
2023-03-12T16:33:09.128Z,50.71
2023-03-12T16:36:09.358Z,51.07
2023-03-12T16:39:09.254Z,50.95
2023-03-12T16:42:09.276Z,51.26
2023-03-12T16:45:09.265Z,51.50
2023-03-12T16:48:13.296Z,51.13
2023-03-12T16:51:13.278Z,51.86
2023-03-12T16:54:14.294Z,52.08
2023-03-12T16:57:07.254Z,52.17
2023-03-12T16:59:53.302Z,52.58
2023-03-12T17:02:53.289Z,52.76
2023-03-12T17:05:53.252Z,53.07
2023-03-12T17:08:53.299Z,53.59
2023-03-12T17:11:53.260Z,54.04
2023-03-12T17:14:53.299Z,54.27
2023-03-12T17:17:53.288Z,54.87
2023-03-12T17:20:53.267Z,54.97
2023-03-12T17:23:53.241Z,55.16
2023-03-12T17:26:53.325Z,55.10
2023-03-12T17:29:53.292Z,54.81
2023-03-12T17:32:53.397Z,54.78
2023-03-12T17:35:53.322Z,55.25
2023-03-12T17:38:53.277Z,55.58
2023-03-12T17:41:53.290Z,55.80
2023-03-12T17:44:53.287Z,55.85
2023-03-12T17:47:53.290Z,56.82
2023-03-12T17:50:53.265Z,56.68
2023-03-12T17:53:46.278Z,57.42
2023-03-12T17:56:32.288Z,57.13
2023-03-12T17:59:33.334Z,57.17
2023-03-12T18:02:33.306Z,57.32
2023-03-12T18:05:33.338Z,57.85
2023-03-12T18:08:33.229Z,57.92
2023-03-12T18:11:33.322Z,58.36
2023-03-12T18:14:33.308Z,58.69
2023-03-12T18:17:33.275Z,59.00
2023-03-12T18:20:39.262Z,59.07
2023-03-12T18:23:39.245Z,60.09
2023-03-12T18:26:39.275Z,60.24
2023-03-12T18:29:42.285Z,60.46
2023-03-12T18:32:42.337Z,61.02
2023-03-12T18:35:42.329Z,60.82
2023-03-12T18:38:42.289Z,62.19
2023-03-12T18:41:42.319Z,62.37
2023-03-12T18:44:42.256Z,62.84
2023-03-12T18:47:46.293Z,62.76
2023-03-12T18:50:46.281Z,62.65
2023-03-12T18:53:46.279Z,62.21
2023-03-12T18:56:47.301Z,62.90
2023-03-12T18:59:51.270Z,62.80
2023-03-12T19:02:51.315Z,63.62
2023-03-12T19:05:51.268Z,63.30
2023-03-12T19:08:51.273Z,63.54
2023-03-12T19:11:51.264Z,64.37
2023-03-12T19:14:51.254Z,64.88
2023-03-12T19:17:51.257Z,64.80
2023-03-12T19:20:51.257Z,65.20
2023-03-12T19:23:51.267Z,65.31
2023-03-12T19:26:51.297Z,65.74
2023-03-12T19:29:51.309Z,65.66
2023-03-12T19:32:51.313Z,65.81
2023-03-12T19:35:52.287Z,66.10
2023-03-12T19:38:52.247Z,65.94
2023-03-12T19:41:52.254Z,66.06
2023-03-12T19:44:52.290Z,66.11
2023-03-12T19:47:52.261Z,66.51
2023-03-12T19:50:52.294Z,66.33
2023-03-12T19:53:52.246Z,66.65
2023-03-12T19:56:52.298Z,67.44
2023-03-12T19:59:52.251Z,67.65
2023-03-12T20:02:52.411Z,68.16
2023-03-12T20:05:52.284Z,67.93
2023-03-12T20:08:52.313Z,68.06
2023-03-12T20:11:52.281Z,68.71
2023-03-12T20:14:52.216Z,69.33
2023-03-12T20:17:52.231Z,70.07
2023-03-12T20:20:52.228Z,70.18
2023-03-12T20:23:52.262Z,70.03
2023-03-12T20:26:52.249Z,69.76
2023-03-12T20:29:52.232Z,69.16
2023-03-12T20:32:52.341Z,69.15
2023-03-12T20:35:52.359Z,69.53
2023-03-12T20:38:52.277Z,69.66
2023-03-12T20:41:52.285Z,69.44
2023-03-12T20:44:52.293Z,69.99
2023-03-12T20:47:52.286Z,69.89
2023-03-12T20:50:52.265Z,70.40
2023-03-12T20:53:52.264Z,71.30
2023-03-12T20:56:52.254Z,70.92
2023-03-12T20:59:52.252Z,71.24
2023-03-12T21:02:52.360Z,71.64
2023-03-12T21:05:52.237Z,71.43
2023-03-12T21:08:52.243Z,71.56
2023-03-12T21:11:52.301Z,71.64
2023-03-12T21:14:52.244Z,72.29
2023-03-12T21:17:53.254Z,73.52
2023-03-12T21:20:54.262Z,71.78
2023-03-12T21:23:54.304Z,70.80
2023-03-12T21:26:54.293Z,69.96
2023-03-12T21:29:54.268Z,70.09
2023-03-12T21:32:54.260Z,69.29
2023-03-12T21:36:00.323Z,69.21
2023-03-12T21:39:00.281Z,69.03
2023-03-12T21:42:00.253Z,68.27
2023-03-12T21:45:00.221Z,68.11
2023-03-12T21:48:00.271Z,68.18
2023-03-12T21:50:53.322Z,68.26
2023-03-12T21:53:53.252Z,68.34
2023-03-12T21:56:53.282Z,68.12
2023-03-12T21:59:53.251Z,67.51
2023-03-12T22:02:58.248Z,67.22
2023-03-12T22:06:04.288Z,67.04
2023-03-12T22:09:04.284Z,66.52
2023-03-12T22:12:04.239Z,66.84
2023-03-12T22:15:04.255Z,67.09
2023-03-12T22:18:04.262Z,67.21
2023-03-12T22:21:08.262Z,67.68
2023-03-12T22:24:08.229Z,68.35
2023-03-12T22:27:10.244Z,67.82
2023-03-12T22:30:10.225Z,67.97
2023-03-12T22:33:10.235Z,67.91
2023-03-12T22:36:10.319Z,68.32
2023-03-12T22:39:11.241Z,68.27
2023-03-12T22:42:11.234Z,68.49
2023-03-12T22:45:11.276Z,68.57
2023-03-12T22:48:11.237Z,68.47
2023-03-12T22:51:12.235Z,68.93
2023-03-12T22:54:12.295Z,68.79
2023-03-12T22:57:12.224Z,68.83
2023-03-12T23:00:13.243Z,68.71
2023-03-12T23:03:13.301Z,68.56
2023-03-12T23:06:14.274Z,68.35
2023-03-12T23:09:14.230Z,68.24
2023-03-12T23:12:14.260Z,68.37
2023-03-12T23:15:14.227Z,68.48
2023-03-12T23:18:14.288Z,68.21
2023-03-12T23:21:16.273Z,67.90
2023-03-12T23:24:16.248Z,67.56
2023-03-12T23:27:16.225Z,67.34
2023-03-12T23:30:16.230Z,67.14
2023-03-12T23:33:16.218Z,66.96
2023-03-12T23:36:23.273Z,66.95
2023-03-12T23:39:23.241Z,67.04
2023-03-12T23:42:23.225Z,67.03
2023-03-12T23:45:24.263Z,67.12
2023-03-12T23:48:24.226Z,66.72
2023-03-12T23:51:36.233Z,66.81
2023-03-12T23:54:36.233Z,66.55
2023-03-12T23:57:36.297Z,66.53
